createdAt,value
2023-01-14T00:02:28.709Z,98817.02
2023-01-14T00:05:42.145Z,98823.27
2023-01-14T00:08:56.393Z,98831.38
2023-01-14T00:12:10.837Z,98837.39
2023-01-14T00:15:23.037Z,98850.58
2023-01-14T00:18:37.666Z,98848.66
2023-01-14T00:21:51.340Z,98849.52
2023-01-14T00:25:03.176Z,98848.79
2023-01-14T00:28:15.159Z,98857.77
2023-01-14T00:31:29.784Z,98860.40
2023-01-14T00:34:42.581Z,98858.73
2023-01-14T00:37:56.072Z,98860.40
2023-01-14T00:41:15.731Z,98857.03
2023-01-14T00:44:28.352Z,98857.37
2023-01-14T00:47:40.416Z,98864.46
2023-01-14T00:50:52.466Z,98869.83
2023-01-14T00:54:05.380Z,98865.64
2023-01-14T00:57:17.703Z,98866.58
2023-01-14T01:00:30.608Z,98863.95
2023-01-14T01:03:47.349Z,98859.64
2023-01-14T01:07:00.151Z,98856.48
2023-01-14T01:10:15.155Z,98860.82
2023-01-14T01:13:28.203Z,98850.48
2023-01-14T01:16:40.150Z,98860.55
2023-01-14T01:19:54.209Z,98865.81
2023-01-14T01:23:06.633Z,98862.45
2023-01-14T01:26:22.539Z,98868.66
2023-01-14T01:29:34.811Z,98869.75
2023-01-14T01:32:46.813Z,98872.39
2023-01-14T01:36:06.412Z,98866.47
2023-01-14T01:39:18.291Z,98878.72
2023-01-14T01:42:35.015Z,98869.23
2023-01-14T01:45:53.082Z,98876.52
2023-01-14T01:49:07.918Z,98882.65
2023-01-14T01:52:24.346Z,98874.95
2023-01-14T01:55:39.257Z,98871.58
2023-01-14T01:58:51.819Z,98870.97
2023-01-14T02:02:05.162Z,98865.09
2023-01-14T02:05:18.142Z,98868.63
2023-01-14T02:08:30.380Z,98881.92
2023-01-14T02:12:13.148Z,98874.95
2023-01-14T02:15:39.854Z,98873.28
2023-01-14T02:19:04.961Z,98887.42
2023-01-14T02:22:29.663Z,98884.88
2023-01-14T02:26:21.553Z,98892.90
2023-01-14T02:29:59.815Z,98896.50
2023-01-14T02:33:38.442Z,98895.77
2023-01-14T02:36:57.606Z,98898.41
2023-01-14T02:40:16.528Z,98894.19
2023-01-14T02:43:50.686Z,98872.40
2023-01-14T02:47:08.398Z,98897.76
2023-01-14T02:50:22.635Z,98900.51
2023-01-14T02:53:34.993Z,98898.84
2023-01-14T02:56:48.219Z,98909.27
2023-01-14T03:00:05.560Z,98911.05
2023-01-14T03:03:38.603Z,98911.28
2023-01-14T03:07:00.212Z,98918.45
2023-01-14T03:13:19.846Z,98916.98
2023-01-14T03:16:36.771Z,98928.56
2023-01-14T03:19:56.448Z,98923.41
2023-01-14T03:23:18.177Z,98927.09
2023-01-14T03:26:33.368Z,98929.93
2023-01-14T03:29:50.719Z,98939.53
2023-01-14T03:33:08.301Z,98937.02
2023-01-14T03:36:22.248Z,98946.08
2023-01-14T03:39:36.096Z,98947.97
2023-01-14T03:42:52.351Z,98949.88
2023-01-14T03:46:05.607Z,98952.62
2023-01-14T03:49:17.961Z,98966.83
2023-01-14T03:52:51.127Z,98957.89
2023-01-14T03:56:10.793Z,98972.72
2023-01-14T03:59:28.490Z,98967.34
2023-01-14T04:02:42.642Z,98968.00
2023-01-14T04:05:55.115Z,98975.56
2023-01-14T04:09:07.378Z,98980.63
2023-01-14T04:12:19.463Z,98986.52
2023-01-14T04:15:31.590Z,98981.45
2023-01-14T04:18:43.647Z,98994.54
2023-01-14T04:21:55.843Z,98989.47
2023-01-14T04:25:08.780Z,98997.37
2023-01-14T04:28:20.773Z,98999.89
2023-01-14T04:31:33.077Z,98996.20
2023-01-14T04:34:45.184Z,99000.73
2023-01-14T04:37:57.185Z,98985.90
2023-01-14T04:41:11.868Z,98988.61
2023-01-14T04:44:24.012Z,98998.33
2023-01-14T04:47:39.437Z,98993.06
2023-01-14T04:50:51.681Z,99004.42
2023-01-14T04:54:04.045Z,99006.01
2023-01-14T04:57:16.852Z,99008.45
2023-01-14T05:00:30.328Z,99011.81
2023-01-14T05:03:42.567Z,99008.22
2023-01-14T05:06:55.288Z,99015.19
2023-01-14T05:10:07.547Z,99009.92
2023-01-14T05:13:19.558Z,99010.66
2023-01-14T05:16:32.167Z,99006.13
2023-01-14T05:19:44.278Z,99012.13
2023-01-14T05:22:56.586Z,99012.87
2023-01-14T05:26:09.004Z,99014.42
2023-01-14T05:29:21.228Z,99020.43
2023-01-14T05:32:33.329Z,99019.38
2023-01-14T05:35:45.920Z,99030.89
2023-01-14T05:38:58.137Z,99044.69
2023-01-14T05:42:24.872Z,99051.74
2023-01-14T05:45:45.489Z,99059.25
2023-01-14T05:48:57.674Z,99053.44
2023-01-14T05:52:10.941Z,99065.14
2023-01-14T05:55:23.332Z,99070.41
2023-01-14T05:58:35.838Z,99072.08
2023-01-14T06:02:02.762Z,99070.19
2023-01-14T06:05:32.928Z,99075.45
2023-01-14T06:08:45.143Z,99086.00
2023-01-14T06:11:59.377Z,99083.25
2023-01-14T06:15:13.836Z,99083.25
2023-01-14T06:18:28.986Z,99095.38
2023-01-14T06:21:41.767Z,99088.25
2023-01-14T06:24:54.037Z,99090.77
2023-01-14T06:28:06.971Z,99094.03
2023-01-14T06:31:21.690Z,99097.63
2023-01-14T06:34:35.109Z,99099.30
2023-01-14T06:37:49.521Z,99107.13
2023-01-14T06:41:04.848Z,99112.17
2023-01-14T06:44:18.206Z,99109.65
2023-01-14T06:47:30.145Z,99113.95
2023-01-14T06:50:42.347Z,99112.17
2023-01-14T06:53:55.134Z,99116.40
2023-01-14T06:57:07.187Z,99119.77
2023-01-14T07:00:22.712Z,99126.72
2023-01-14T07:03:35.200Z,99126.52
2023-01-14T07:06:47.576Z,99132.64
2023-01-14T07:09:59.734Z,99139.48
2023-01-14T07:13:12.089Z,99137.58
2023-01-14T07:16:24.127Z,99136.64
2023-01-14T07:19:36.399Z,99140.88
2023-01-14T07:22:48.501Z,99143.39
2023-01-14T07:26:03.302Z,99142.43
2023-01-14T07:29:15.796Z,99145.69
2023-01-14T07:32:27.897Z,99147.28
2023-01-14T07:35:39.899Z,99148.02
2023-01-14T07:38:52.057Z,99148.64
2023-01-14T07:42:04.003Z,99151.93
2023-01-14T07:45:17.740Z,99155.19
2023-01-14T07:48:29.855Z,99158.14
2023-01-14T07:51:41.815Z,99163.10
2023-01-14T07:54:54.063Z,99171.29
2023-01-14T07:58:07.211Z,99168.22
2023-01-14T08:01:19.643Z,99178.34
2023-01-14T08:04:32.102Z,99164.09
2023-01-14T08:07:44.727Z,99170.73
2023-01-14T08:10:56.833Z,99179.92
2023-01-14T08:14:08.927Z,99177.58
2023-01-14T08:17:21.086Z,99177.63
2023-01-14T08:20:33.482Z,99174.67
2023-01-14T08:23:45.754Z,99175.52
2023-01-14T08:26:57.981Z,99172.93
2023-01-14T08:30:12.298Z,99180.17
2023-01-14T08:33:24.417Z,99185.24
2023-01-14T08:36:36.441Z,99189.55
2023-01-14T08:39:48.750Z,99184.27
2023-01-14T08:43:00.976Z,99193.17
2023-01-14T08:46:15.099Z,99201.83
2023-01-14T08:49:27.405Z,99204.47
2023-01-14T08:52:39.814Z,99211.22
2023-01-14T08:55:51.921Z,99212.89
2023-01-14T08:59:04.041Z,99220.08
2023-01-14T09:02:21.185Z,99210.16
2023-01-14T09:05:36.078Z,99215.20
2023-01-14T09:09:03.347Z,99212.23
2023-01-14T09:12:33.327Z,99206.83
2023-01-14T09:16:01.366Z,99210.81
2023-01-14T09:19:13.961Z,99203.04
2023-01-14T09:22:29.545Z,99205.23
2023-01-14T09:25:42.397Z,99210.91
2023-01-14T09:28:54.536Z,99206.38
2023-01-14T09:32:06.968Z,99209.08
2023-01-14T09:35:19.689Z,99199.37
2023-01-14T09:38:31.702Z,99200.77
2023-01-14T09:41:49.314Z,99198.36
2023-01-14T09:45:07.132Z,99192.34
2023-01-14T09:48:25.493Z,99196.45
2023-01-14T09:52:08.468Z,99177.91
2023-01-14T09:55:25.853Z,99191.61
2023-01-14T09:58:42.735Z,99185.56
2023-01-14T10:02:00.446Z,99189.16
2023-01-14T10:05:24.545Z,99187.58
2023-01-14T10:08:46.946Z,99183.84
2023-01-14T10:21:03.649Z,99178.27
2023-01-14T10:24:20.112Z,99177.78
2023-01-14T10:27:36.065Z,99176.44
2023-01-14T10:30:51.511Z,99167.38
2023-01-14T10:34:05.299Z,99170.88
2023-01-14T10:37:19.263Z,99162.56
2023-01-14T10:40:33.511Z,99166.78
2023-01-14T10:43:51.753Z,99171.33
2023-01-14T10:47:09.593Z,99169.39
2023-01-14T10:50:30.435Z,99160.73
2023-01-14T10:53:43.646Z,99171.10
2023-01-14T11:00:00.876Z,99155.56
2023-01-14T11:03:15.647Z,99144.83
2023-01-14T11:06:29.909Z,99145.09
2023-01-14T11:09:43.238Z,99138.08
2023-01-14T11:12:57.385Z,99132.28
2023-01-14T11:16:11.154Z,99136.36
2023-01-14T11:19:29.289Z,99134.16
2023-01-14T11:22:41.758Z,99135.64
2023-01-14T11:25:57.474Z,99132.22
2023-01-14T11:29:20.223Z,99134.13
2023-01-14T11:32:37.339Z,99139.16
2023-01-14T11:35:47.828Z,99131.68
2023-01-14T11:39:02.895Z,99127.09
2023-01-14T11:42:39.187Z,99139.16
2023-01-14T11:45:51.351Z,99140.38
2023-01-14T11:49:23.775Z,99137.02
2023-01-14T11:52:35.995Z,99129.70
2023-01-14T11:55:50.436Z,99122.09
2023-01-14T11:59:05.483Z,99119.68
2023-01-14T12:02:25.941Z,99113.25
2023-01-14T12:05:38.497Z,99110.02
2023-01-14T12:08:57.671Z,99116.88
2023-01-14T12:12:16.115Z,99116.66
2023-01-14T12:15:51.491Z,99124.31
2023-01-14T12:19:13.193Z,99113.00
2023-01-14T12:22:32.984Z,99099.89
2023-01-14T12:25:48.678Z,99099.89
2023-01-14T12:29:05.996Z,99099.30
2023-01-14T12:32:24.368Z,99091.23
2023-01-14T12:35:42.599Z,99081.72
2023-01-14T12:39:20.884Z,99076.32
2023-01-14T12:45:52.122Z,99079.20
2023-01-14T12:49:05.874Z,99088.62
2023-01-14T12:52:22.247Z,99088.98
2023-01-14T12:55:38.815Z,99091.27
2023-01-14T12:58:59.927Z,99083.81
2023-01-14T13:02:22.102Z,99088.13
2023-01-14T13:05:42.964Z,99079.73
2023-01-14T13:09:02.150Z,99080.94
2023-01-14T13:12:24.393Z,99084.92
2023-01-14T13:15:42.248Z,99090.31
2023-01-14T13:42:30.403Z,99075.41
2023-01-14T13:48:48.029Z,99065.83
2023-01-14T13:52:09.129Z,99070.98
2023-01-14T13:55:29.377Z,99064.95
2023-01-14T13:58:50.186Z,99066.11
2023-01-14T14:02:05.413Z,99058.88
2023-01-14T14:05:30.526Z,99063.33
2023-01-14T14:08:44.092Z,99063.02
2023-01-14T14:12:34.410Z,99063.03
2023-01-14T14:15:54.720Z,99053.92
2023-01-14T14:25:50.272Z,99061.69
2023-01-14T14:32:10.793Z,99049.89
2023-01-14T14:35:26.118Z,99045.09
2023-01-14T14:38:38.944Z,99048.84
2023-01-14T14:41:54.435Z,99044.27
2023-01-14T14:45:08.021Z,99051.84
2023-01-14T14:48:29.903Z,99050.88
2023-01-14T14:51:50.528Z,99046.07
2023-01-14T14:55:17.007Z,99050.87
2023-01-14T14:58:31.355Z,99052.32
2023-01-14T15:01:45.576Z,99044.73
2023-01-14T15:05:01.849Z,99044.62
2023-01-14T15:08:18.998Z,99039.80
2023-01-14T15:11:36.757Z,99037.75
2023-01-14T15:14:48.934Z,99041.09
2023-01-14T15:18:08.972Z,99039.77
2023-01-14T15:21:26.097Z,99039.38
2023-01-14T15:24:40.507Z,99034.20
2023-01-14T15:27:54.466Z,99036.34
2023-01-14T15:31:08.946Z,99032.36
2023-01-14T15:34:32.550Z,99035.80
2023-01-14T15:37:46.746Z,99028.83
2023-01-14T15:40:59.353Z,99034.66
2023-01-14T15:44:18.618Z,99026.70
2023-01-14T15:47:31.648Z,99033.48
2023-01-14T15:50:48.089Z,99025.08
2023-01-14T15:54:15.632Z,99026.98
2023-01-14T15:57:32.329Z,99031.02
2023-01-14T16:00:51.700Z,99038.11
2023-01-14T16:04:05.763Z,99043.47
2023-01-14T16:07:23.076Z,99034.21
2023-01-14T16:10:35.699Z,99036.36
2023-01-14T16:13:48.009Z,99044.83
2023-01-14T16:17:00.261Z,99038.09
2023-01-14T16:20:19.622Z,99039.34
2023-01-14T16:23:31.865Z,99042.41
2023-01-14T16:26:44.560Z,99037.49
2023-01-14T16:29:57.665Z,99043.08
2023-01-14T16:33:10.150Z,99030.33
2023-01-14T16:36:22.907Z,99014.95
2023-01-14T16:39:35.400Z,99011.58
2023-01-14T16:42:47.959Z,99017.90
2023-01-14T16:46:01.783Z,99028.14
2023-01-14T16:49:14.212Z,99013.48
2023-01-14T16:52:26.383Z,99007.80
2023-01-14T16:55:39.490Z,99001.91
2023-01-14T16:58:52.751Z,99000.20
2023-01-14T17:02:04.911Z,98998.53
2023-01-14T17:05:18.202Z,99001.36
2023-01-14T17:08:30.252Z,98998.73
2023-01-14T17:11:56.825Z,98995.59
2023-01-14T17:15:09.794Z,98983.77
2023-01-14T17:18:21.907Z,98974.28
2023-01-14T17:21:34.260Z,98968.20
2023-01-14T17:24:46.821Z,98970.91
2023-01-14T17:28:00.744Z,98958.83
2023-01-14T17:34:13.255Z,98962.08
2023-01-14T17:37:25.721Z,98943.55
2023-01-14T17:40:39.494Z,98944.80
2023-01-14T17:43:52.851Z,98937.02
2023-01-14T17:47:05.732Z,98933.88
2023-01-14T17:50:18.992Z,98949.02
2023-01-14T17:53:31.369Z,98937.01
2023-01-14T17:56:43.731Z,98931.46
2023-01-14T17:59:57.505Z,98927.13
2023-01-14T18:03:09.660Z,98916.83
2023-01-14T18:06:21.883Z,98918.91
2023-01-14T18:09:34.069Z,98917.98
2023-01-14T18:12:46.204Z,98927.35
2023-01-14T18:15:58.406Z,98925.66
2023-01-14T18:19:11.098Z,98915.97
2023-01-14T18:22:23.525Z,98918.72
2023-01-14T18:25:35.641Z,98913.53
2023-01-14T18:28:50.625Z,98913.45
2023-01-14T18:32:02.745Z,98909.86
2023-01-14T18:35:15.720Z,98914.93
2023-01-14T18:38:28.017Z,98895.53
2023-01-14T18:41:40.476Z,98890.05
2023-01-14T18:44:52.437Z,98880.98
2023-01-14T18:48:04.605Z,98879.74
2023-01-14T18:51:17.734Z,98883.19
2023-01-14T18:54:31.362Z,98875.09
2023-01-14T18:57:44.344Z,98876.56
2023-01-14T19:00:57.463Z,98871.06
2023-01-14T19:04:10.816Z,98854.88
2023-01-14T19:07:23.151Z,98858.98
2023-01-14T19:10:35.460Z,98851.17
2023-01-14T19:13:47.511Z,98841.59
2023-01-14T19:17:05.438Z,98850.66
2023-01-14T19:20:19.610Z,98827.08
2023-01-14T19:23:31.710Z,98822.87
2023-01-14T19:26:44.045Z,98811.38
2023-01-14T19:29:56.191Z,98809.91
2023-01-14T19:33:08.237Z,98815.41
2023-01-14T19:36:24.027Z,98811.07
2023-01-14T19:39:37.937Z,98793.61
2023-01-14T19:42:52.833Z,98786.68
2023-01-14T19:46:09.154Z,98785.59
2023-01-14T19:49:23.364Z,98777.81
2023-01-14T19:52:35.707Z,98777.27
2023-01-14T19:56:08.629Z,98778.31
2023-01-14T19:59:13.710Z,98764.33
2023-01-14T20:02:28.430Z,98759.89
2023-01-14T20:05:41.936Z,98760.61
2023-01-14T20:08:55.071Z,98751.05
2023-01-14T20:12:09.930Z,98750.73
2023-01-14T20:15:22.095Z,98733.80
2023-01-14T20:18:35.932Z,98745.47
2023-01-14T20:21:48.603Z,98739.11
2023-01-14T20:25:01.518Z,98729.55
2023-01-14T20:28:14.323Z,98733.84
2023-01-14T20:31:28.925Z,98726.68
2023-01-14T20:34:41.418Z,98722.38
2023-01-14T20:37:53.938Z,98720.48
2023-01-14T20:41:09.274Z,98709.22
2023-01-14T20:44:32.073Z,98711.13
2023-01-14T20:47:56.562Z,98689.98
2023-01-14T20:51:13.623Z,98711.13
2023-01-14T20:54:25.585Z,98710.16
2023-01-14T20:57:38.102Z,98705.86
2023-01-14T21:00:50.539Z,98699.86
2023-01-14T21:07:02.984Z,98697.23
2023-01-14T21:20:01.739Z,98684.91
2023-01-14T21:23:15.276Z,98690.91
2023-01-14T21:26:28.204Z,98689.09
2023-01-14T21:29:40.692Z,98686.70
2023-01-14T21:32:53.430Z,98676.16
2023-01-14T21:36:06.425Z,98671.83
2023-01-14T21:45:26.066Z,98685.92
2023-01-14T21:48:34.266Z,98687.17
2023-01-14T22:00:47.203Z,98680.28
2023-01-14T22:04:01.577Z,98682.19
2023-01-14T22:44:44.269Z,98608.62
2023-01-14T22:47:58.824Z,98606.59
2023-01-14T22:51:12.791Z,98602.80
2023-01-14T22:54:24.986Z,98598.14
2023-01-14T22:57:37.106Z,98590.48
2023-01-14T23:00:50.683Z,98595.95
2023-01-14T23:04:03.780Z,98589.97
2023-01-14T23:07:16.379Z,98579.45
2023-01-14T23:10:32.217Z,98573.45
2023-01-14T23:13:44.491Z,98560.95
2023-01-14T23:17:11.732Z,98548.61
2023-01-14T23:20:38.689Z,98543.27
2023-01-14T23:23:56.515Z,98524.48
2023-01-14T23:27:08.922Z,98511.85
2023-01-14T23:30:21.965Z,98498.58
2023-01-14T23:33:33.877Z,98490.56
2023-01-14T23:36:46.274Z,98477.28
2023-01-14T23:39:58.998Z,98471.09
2023-01-14T23:43:11.704Z,98457.09
2023-01-14T23:46:24.328Z,98455.28
2023-01-14T23:49:37.355Z,98451.08
2023-01-14T23:52:49.453Z,98454.55
2023-01-14T23:56:03.646Z,98451.80
2023-01-14T23:59:16.655Z,98451.80
